sensor_id;sensor_type;location;lat;lon;timestamp;temperature;humidity
51011;DHT22;37038;50.182;8.624;2024-01-16T00:00:57;0.30;99.90
51011;DHT22;37038;50.182;8.624;2024-01-16T00:03:46;0.30;99.90
51011;DHT22;37038;50.182;8.624;2024-01-16T00:06:42;0.30;99.90
51011;DHT22;37038;50.182;8.624;2024-01-16T00:09:35;0.30;1.00
51011;DHT22;37038;50.182;8.624;2024-01-16T00:12:31;0.40;99.90
51011;DHT22;37038;50.182;8.624;2024-01-16T00:15:30;0.40;1.00
51011;DHT22;37038;50.182;8.624;2024-01-16T00:18:21;0.40;99.90
51011;DHT22;37038;50.182;8.624;2024-01-16T00:21:15;0.50;99.90
51011;DHT22;37038;50.182;8.624;2024-01-16T00:24:05;0.40;1.00
51011;DHT22;37038;50.182;8.624;2024-01-16T00:26:55;0.40;1.00
51011;DHT22;37038;50.182;8.624;2024-01-16T00:29:46;0.30;1.00
51011;DHT22;37038;50.182;8.624;2024-01-16T00:32:35;0.30;99.90
51011;DHT22;37038;50.182;8.624;2024-01-16T00:35:26;0.20;91.70
51011;DHT22;37038;50.182;8.624;2024-01-16T00:38:15;0.20;1.00
51011;DHT22;37038;50.182;8.624;2024-01-16T00:41:07;0.10;99.90
51011;DHT22;37038;50.182;8.624;2024-01-16T00:43:55;0.10;1.00
51011;DHT22;37038;50.182;8.624;2024-01-16T00:46:44;0.10;99.90
51011;DHT22;37038;50.182;8.624;2024-01-16T00:49:32;0.00;99.90
51011;DHT22;37038;50.182;8.624;2024-01-16T00:52:20;0.00;1.00
51011;DHT22;37038;50.182;8.624;2024-01-16T00:55:09;0.00;1.00
51011;DHT22;37038;50.182;8.624;2024-01-16T00:57:57;0.00;99.90
51011;DHT22;37038;50.182;8.624;2024-01-16T01:00:47;0.00;99.90
51011;DHT22;37038;50.182;8.624;2024-01-16T01:03:36;0.00;99.90
51011;DHT22;37038;50.182;8.624;2024-01-16T01:06:24;0.00;1.00
51011;DHT22;37038;50.182;8.624;2024-01-16T01:09:12;0.00;1.00
51011;DHT22;37038;50.182;8.624;2024-01-16T01:12:01;0.00;99.90
51011;DHT22;37038;50.182;8.624;2024-01-16T01:14:49;0.00;1.00
51011;DHT22;37038;50.182;8.624;2024-01-16T01:17:38;-0.10;1.00
51011;DHT22;37038;50.182;8.624;2024-01-16T01:20:26;-0.10;1.00
51011;DHT22;37038;50.182;8.624;2024-01-16T01:23:14;-0.10;99.90
51011;DHT22;37038;50.182;8.624;2024-01-16T01:26:03;-0.20;1.00
51011;DHT22;37038;50.182;8.624;2024-01-16T01:28:52;-0.20;1.00
51011;DHT22;37038;50.182;8.624;2024-01-16T01:31:40;-0.30;23.40
51011;DHT22;37038;50.182;8.624;2024-01-16T01:34:29;-0.30;99.90
51011;DHT22;37038;50.182;8.624;2024-01-16T01:37:17;-0.30;99.90
51011;DHT22;37038;50.182;8.624;2024-01-16T01:40:06;-0.30;99.90
51011;DHT22;37038;50.182;8.624;2024-01-16T01:43:25;-0.30;99.90
51011;DHT22;37038;50.182;8.624;2024-01-16T01:46:18;-0.30;99.90
51011;DHT22;37038;50.182;8.624;2024-01-16T01:49:07;-0.30;99.90
51011;DHT22;37038;50.182;8.624;2024-01-16T01:51:56;-0.30;71.90
51011;DHT22;37038;50.182;8.624;2024-01-16T01:54:47;-0.30;77.40
51011;DHT22;37038;50.182;8.624;2024-01-16T01:57:37;-0.30;1.00
51011;DHT22;37038;50.182;8.624;2024-01-16T02:00:26;-0.20;99.90
51011;DHT22;37038;50.182;8.624;2024-01-16T02:03:16;-0.10;1.00
51011;DHT22;37038;50.182;8.624;2024-01-16T02:06:05;0.00;99.90
51011;DHT22;37038;50.182;8.624;2024-01-16T02:08:53;0.10;1.00
51011;DHT22;37038;50.182;8.624;2024-01-16T02:11:43;0.10;1.00
51011;DHT22;37038;50.182;8.624;2024-01-16T02:14:31;0.20;1.00
51011;DHT22;37038;50.182;8.624;2024-01-16T02:17:21;0.20;47.90
51011;DHT22;37038;50.182;8.624;2024-01-16T02:20:10;0.20;1.00
51011;DHT22;37038;50.182;8.624;2024-01-16T02:23:03;0.10;63.80
51011;DHT22;37038;50.182;8.624;2024-01-16T02:25:52;0.10;1.00
51011;DHT22;37038;50.182;8.624;2024-01-16T02:28:40;0.00;1.00
51011;DHT22;37038;50.182;8.624;2024-01-16T02:31:32;0.10;99.90
51011;DHT22;37038;50.182;8.624;2024-01-16T02:34:20;0.10;1.00
51011;DHT22;37038;50.182;8.624;2024-01-16T02:37:09;0.00;99.90
51011;DHT22;37038;50.182;8.624;2024-01-16T02:39:57;0.00;40.10
51011;DHT22;37038;50.182;8.624;2024-01-16T02:42:46;0.00;99.90
51011;DHT22;37038;50.182;8.624;2024-01-16T02:45:34;0.00;1.00
51011;DHT22;37038;50.182;8.624;2024-01-16T02:48:23;0.00;99.90
51011;DHT22;37038;50.182;8.624;2024-01-16T02:51:11;-0.10;1.00
51011;DHT22;37038;50.182;8.624;2024-01-16T02:54:01;-0.20;99.90
51011;DHT22;37038;50.182;8.624;2024-01-16T02:56:49;-0.30;99.90
51011;DHT22;37038;50.182;8.624;2024-01-16T02:59:43;-0.30;99.90
51011;DHT22;37038;50.182;8.624;2024-01-16T03:02:32;-0.20;99.90
51011;DHT22;37038;50.182;8.624;2024-01-16T03:05:21;-0.30;99.90
51011;DHT22;37038;50.182;8.624;2024-01-16T03:08:09;-0.30;99.90
51011;DHT22;37038;50.182;8.624;2024-01-16T03:11:03;-0.20;99.90
51011;DHT22;37038;50.182;8.624;2024-01-16T03:13:52;-0.10;1.00
51011;DHT22;37038;50.182;8.624;2024-01-16T03:16:47;-0.10;1.00
51011;DHT22;37038;50.182;8.624;2024-01-16T03:19:39;0.00;1.00
51011;DHT22;37038;50.182;8.624;2024-01-16T03:22:28;0.00;1.00
51011;DHT22;37038;50.182;8.624;2024-01-16T03:25:19;0.00;1.00
51011;DHT22;37038;50.182;8.624;2024-01-16T03:28:08;0.00;1.00
51011;DHT22;37038;50.182;8.624;2024-01-16T03:30:58;0.00;1.00
51011;DHT22;37038;50.182;8.624;2024-01-16T03:33:47;0.10;1.00
51011;DHT22;37038;50.182;8.624;2024-01-16T03:36:37;0.10;1.00
51011;DHT22;37038;50.182;8.624;2024-01-16T03:39:25;0.00;99.90
51011;DHT22;37038;50.182;8.624;2024-01-16T03:42:14;0.00;99.90
51011;DHT22;37038;50.182;8.624;2024-01-16T03:45:03;0.00;99.90
51011;DHT22;37038;50.182;8.624;2024-01-16T03:47:51;-0.10;99.90
51011;DHT22;37038;50.182;8.624;2024-01-16T03:50:44;0.00;1.00
51011;DHT22;37038;50.182;8.624;2024-01-16T03:53:35;0.10;1.00
51011;DHT22;37038;50.182;8.624;2024-01-16T03:56:24;0.10;99.90
51011;DHT22;37038;50.182;8.624;2024-01-16T03:59:12;0.00;1.00
51011;DHT22;37038;50.182;8.624;2024-01-16T04:02:03;0.10;99.90
51011;DHT22;37038;50.182;8.624;2024-01-16T04:04:54;0.10;1.00
51011;DHT22;37038;50.182;8.624;2024-01-16T04:07:43;0.00;1.00
51011;DHT22;37038;50.182;8.624;2024-01-16T04:10:31;0.00;90.70
51011;DHT22;37038;50.182;8.624;2024-01-16T04:13:20;0.00;99.90
51011;DHT22;37038;50.182;8.624;2024-01-16T04:16:09;-0.10;99.90
51011;DHT22;37038;50.182;8.624;2024-01-16T04:19:00;-0.10;99.90
51011;DHT22;37038;50.182;8.624;2024-01-16T04:21:48;-0.10;99.90
51011;DHT22;37038;50.182;8.624;2024-01-16T04:24:36;-0.10;99.90
51011;DHT22;37038;50.182;8.624;2024-01-16T04:27:25;0.00;99.90
51011;DHT22;37038;50.182;8.624;2024-01-16T04:30:13;0.00;99.90
51011;DHT22;37038;50.182;8.624;2024-01-16T04:33:02;0.00;99.90
51011;DHT22;37038;50.182;8.624;2024-01-16T04:35:51;0.10;99.90
51011;DHT22;37038;50.182;8.624;2024-01-16T04:38:42;0.00;1.00
51011;DHT22;37038;50.182;8.624;2024-01-16T04:41:31;0.00;99.90
51011;DHT22;37038;50.182;8.624;2024-01-16T04:44:19;0.00;1.00
51011;DHT22;37038;50.182;8.624;2024-01-16T04:47:08;0.00;99.90
51011;DHT22;37038;50.182;8.624;2024-01-16T04:49:56;0.10;1.00
51011;DHT22;37038;50.182;8.624;2024-01-16T04:52:45;0.00;83.80
51011;DHT22;37038;50.182;8.624;2024-01-16T04:55:33;0.00;99.90
51011;DHT22;37038;50.182;8.624;2024-01-16T04:58:22;-0.10;99.90
51011;DHT22;37038;50.182;8.624;2024-01-16T05:01:13;-0.20;99.90
51011;DHT22;37038;50.182;8.624;2024-01-16T05:04:01;-0.40;1.00
51011;DHT22;37038;50.182;8.624;2024-01-16T05:06:52;-0.50;99.90
51011;DHT22;37038;50.182;8.624;2024-01-16T05:09:41;-0.50;99.90
51011;DHT22;37038;50.182;8.624;2024-01-16T05:12:29;-0.60;99.90
51011;DHT22;37038;50.182;8.624;2024-01-16T05:15:22;-0.60;99.90
51011;DHT22;37038;50.182;8.624;2024-01-16T05:18:10;-0.50;99.90
51011;DHT22;37038;50.182;8.624;2024-01-16T05:20:59;-0.50;81.20
51011;DHT22;37038;50.182;8.624;2024-01-16T05:23:51;-0.40;16.00
51011;DHT22;37038;50.182;8.624;2024-01-16T05:26:39;-0.30;1.00
51011;DHT22;37038;50.182;8.624;2024-01-16T05:29:30;-0.20;1.00
51011;DHT22;37038;50.182;8.624;2024-01-16T05:32:21;-0.40;99.90
51011;DHT22;37038;50.182;8.624;2024-01-16T05:35:12;-0.40;26.90
51011;DHT22;37038;50.182;8.624;2024-01-16T05:38:04;-0.40;1.00
51011;DHT22;37038;50.182;8.624;2024-01-16T05:40:53;-0.40;1.00
51011;DHT22;37038;50.182;8.624;2024-01-16T05:43:41;-0.20;17.60
51011;DHT22;37038;50.182;8.624;2024-01-16T05:46:32;-0.20;67.20
51011;DHT22;37038;50.182;8.624;2024-01-16T05:49:20;-0.10;99.90
51011;DHT22;37038;50.182;8.624;2024-01-16T05:52:08;-0.20;99.90
51011;DHT22;37038;50.182;8.624;2024-01-16T05:54:58;-0.30;99.90
51011;DHT22;37038;50.182;8.624;2024-01-16T05:57:49;-0.50;1.00
51011;DHT22;37038;50.182;8.624;2024-01-16T06:00:38;-0.40;99.90
51011;DHT22;37038;50.182;8.624;2024-01-16T06:03:27;-0.40;99.90
51011;DHT22;37038;50.182;8.624;2024-01-16T06:06:16;-0.50;99.90
51011;DHT22;37038;50.182;8.624;2024-01-16T06:09:04;-0.60;1.00
51011;DHT22;37038;50.182;8.624;2024-01-16T06:11:53;-0.60;1.00
51011;DHT22;37038;50.182;8.624;2024-01-16T06:14:42;-0.70;1.00
51011;DHT22;37038;50.182;8.624;2024-01-16T06:17:31;-0.70;1.00
51011;DHT22;37038;50.182;8.624;2024-01-16T06:20:19;-0.80;1.00
51011;DHT22;37038;50.182;8.624;2024-01-16T06:23:08;-0.90;26.20
51011;DHT22;37038;50.182;8.624;2024-01-16T06:25:57;-0.90;1.00
51011;DHT22;37038;50.182;8.624;2024-01-16T06:28:46;-0.90;1.00
51011;DHT22;37038;50.182;8.624;2024-01-16T06:31:36;-0.90;1.00
51011;DHT22;37038;50.182;8.624;2024-01-16T06:34:24;-0.70;1.00
51011;DHT22;37038;50.182;8.624;2024-01-16T06:37:13;-0.80;99.90
51011;DHT22;37038;50.182;8.624;2024-01-16T06:40:06;-0.60;99.90
51011;DHT22;37038;50.182;8.624;2024-01-16T06:42:58;-0.50;1.00
51011;DHT22;37038;50.182;8.624;2024-01-16T06:45:46;-0.70;99.90
51011;DHT22;37038;50.182;8.624;2024-01-16T06:48:38;-0.90;1.00
51011;DHT22;37038;50.182;8.624;2024-01-16T06:51:27;-1.00;99.90
51011;DHT22;37038;50.182;8.624;2024-01-16T06:54:16;-1.00;1.00
51011;DHT22;37038;50.182;8.624;2024-01-16T06:57:05;-0.90;1.00
51011;DHT22;37038;50.182;8.624;2024-01-16T06:59:54;-1.00;99.90
51011;DHT22;37038;50.182;8.624;2024-01-16T07:02:42;-1.10;1.00
51011;DHT22;37038;50.182;8.624;2024-01-16T07:05:31;-1.20;1.00
51011;DHT22;37038;50.182;8.624;2024-01-16T07:08:19;-1.20;1.00
51011;DHT22;37038;50.182;8.624;2024-01-16T07:11:13;-1.30;99.90
51011;DHT22;37038;50.182;8.624;2024-01-16T07:14:02;-1.20;99.90
51011;DHT22;37038;50.182;8.624;2024-01-16T07:16:51;-1.20;1.00
51011;DHT22;37038;50.182;8.624;2024-01-16T07:19:45;-1.20;1.00
51011;DHT22;37038;50.182;8.624;2024-01-16T07:22:33;-1.30;1.00
51011;DHT22;37038;50.182;8.624;2024-01-16T07:25:22;-1.30;1.00
51011;DHT22;37038;50.182;8.624;2024-01-16T07:28:10;-1.30;1.00
51011;DHT22;37038;50.182;8.624;2024-01-16T07:30:59;-1.40;1.00
51011;DHT22;37038;50.182;8.624;2024-01-16T07:33:47;-1.40;1.00
51011;DHT22;37038;50.182;8.624;2024-01-16T07:36:38;-1.40;1.00
51011;DHT22;37038;50.182;8.624;2024-01-16T07:39:27;-1.40;1.00
51011;DHT22;37038;50.182;8.624;2024-01-16T07:42:20;-1.40;1.00
51011;DHT22;37038;50.182;8.624;2024-01-16T07:45:09;-1.40;1.00
51011;DHT22;37038;50.182;8.624;2024-01-16T07:47:58;-1.40;1.00
51011;DHT22;37038;50.182;8.624;2024-01-16T07:50:47;-1.40;1.00
51011;DHT22;37038;50.182;8.624;2024-01-16T07:53:38;-1.40;99.90
51011;DHT22;37038;50.182;8.624;2024-01-16T07:56:29;-1.50;99.90
51011;DHT22;37038;50.182;8.624;2024-01-16T07:59:20;-1.50;1.00
51011;DHT22;37038;50.182;8.624;2024-01-16T08:02:10;-1.40;99.90
51011;DHT22;37038;50.182;8.624;2024-01-16T08:04:58;-1.40;99.90
51011;DHT22;37038;50.182;8.624;2024-01-16T08:07:47;-1.40;1.00
51011;DHT22;37038;50.182;8.624;2024-01-16T08:10:37;-1.30;99.90
51011;DHT22;37038;50.182;8.624;2024-01-16T08:13:29;-1.30;99.90
51011;DHT22;37038;50.182;8.624;2024-01-16T08:16:18;-1.30;1.00
51011;DHT22;37038;50.182;8.624;2024-01-16T08:19:09;-1.30;1.00
51011;DHT22;37038;50.182;8.624;2024-01-16T08:22:00;-1.40;1.00
51011;DHT22;37038;50.182;8.624;2024-01-16T08:24:52;-1.40;99.90
51011;DHT22;37038;50.182;8.624;2024-01-16T08:27:43;-1.40;54.10
51011;DHT22;37038;50.182;8.624;2024-01-16T08:30:32;-1.40;1.00
51011;DHT22;37038;50.182;8.624;2024-01-16T08:33:21;-1.40;34.80
51011;DHT22;37038;50.182;8.624;2024-01-16T08:36:23;-1.40;52.70
51011;DHT22;37038;50.182;8.624;2024-01-16T08:39:11;-1.30;1.00
51011;DHT22;37038;50.182;8.624;2024-01-16T08:42:00;-1.30;99.90
51011;DHT22;37038;50.182;8.624;2024-01-16T08:44:50;-1.30;1.00
51011;DHT22;37038;50.182;8.624;2024-01-16T08:47:39;-1.30;76.60
51011;DHT22;37038;50.182;8.624;2024-01-16T08:50:40;-1.30;1.00
51011;DHT22;37038;50.182;8.624;2024-01-16T08:53:30;-1.20;1.00
51011;DHT22;37038;50.182;8.624;2024-01-16T08:56:19;-1.10;99.90
51011;DHT22;37038;50.182;8.624;2024-01-16T08:59:08;-1.10;99.90
51011;DHT22;37038;50.182;8.624;2024-01-16T09:01:58;-1.10;99.90
51011;DHT22;37038;50.182;8.624;2024-01-16T09:04:46;-1.00;1.00
51011;DHT22;37038;50.182;8.624;2024-01-16T09:07:38;-1.00;99.90
51011;DHT22;37038;50.182;8.624;2024-01-16T09:10:26;-1.10;99.90
51011;DHT22;37038;50.182;8.624;2024-01-16T09:13:14;-1.00;99.90
51011;DHT22;37038;50.182;8.624;2024-01-16T09:16:03;-1.00;1.00
51011;DHT22;37038;50.182;8.624;2024-01-16T09:18:52;-0.90;99.90
51011;DHT22;37038;50.182;8.624;2024-01-16T09:21:40;-0.80;1.00
51011;DHT22;37038;50.182;8.624;2024-01-16T09:24:31;-0.70;26.50
51011;DHT22;37038;50.182;8.624;2024-01-16T09:27:19;-0.60;99.90
51011;DHT22;37038;50.182;8.624;2024-01-16T09:30:10;-0.50;99.90
51011;DHT22;37038;50.182;8.624;2024-01-16T09:33:00;-0.40;99.90
51011;DHT22;37038;50.182;8.624;2024-01-16T09:35:52;-0.40;99.90
51011;DHT22;37038;50.182;8.624;2024-01-16T09:38:41;-0.40;99.90
51011;DHT22;37038;50.182;8.624;2024-01-16T09:41:29;-0.40;1.00
51011;DHT22;37038;50.182;8.624;2024-01-16T09:44:20;-0.30;33.70
51011;DHT22;37038;50.182;8.624;2024-01-16T09:47:11;-0.20;1.00
51011;DHT22;37038;50.182;8.624;2024-01-16T09:50:01;-0.30;16.20
51011;DHT22;37038;50.182;8.624;2024-01-16T09:52:56;-0.30;99.90
51011;DHT22;37038;50.182;8.624;2024-01-16T09:55:49;-0.30;1.00
51011;DHT22;37038;50.182;8.624;2024-01-16T09:58:39;-0.10;99.90
51011;DHT22;37038;50.182;8.624;2024-01-16T10:01:27;-0.10;1.00
51011;DHT22;37038;50.182;8.624;2024-01-16T10:04:19;-0.20;99.90
51011;DHT22;37038;50.182;8.624;2024-01-16T10:07:12;0.10;99.90
51011;DHT22;37038;50.182;8.624;2024-01-16T10:10:00;0.10;1.00
51011;DHT22;37038;50.182;8.624;2024-01-16T10:12:49;0.10;12.40
51011;DHT22;37038;50.182;8.624;2024-01-16T10:15:39;0.10;99.90
51011;DHT22;37038;50.182;8.624;2024-01-16T10:18:28;-0.10;1.00
51011;DHT22;37038;50.182;8.624;2024-01-16T10:21:22;0.20;1.00
51011;DHT22;37038;50.182;8.624;2024-01-16T10:24:12;0.10;99.90
51011;DHT22;37038;50.182;8.624;2024-01-16T10:27:02;-0.10;1.00
51011;DHT22;37038;50.182;8.624;2024-01-16T10:29:55;0.10;99.90
51011;DHT22;37038;50.182;8.624;2024-01-16T10:32:47;0.10;1.00
51011;DHT22;37038;50.182;8.624;2024-01-16T10:35:36;0.00;99.90
51011;DHT22;37038;50.182;8.624;2024-01-16T10:38:25;0.10;99.90
51011;DHT22;37038;50.182;8.624;2024-01-16T10:41:17;0.20;99.90
51011;DHT22;37038;50.182;8.624;2024-01-16T10:44:07;0.30;70.60
51011;DHT22;37038;50.182;8.624;2024-01-16T10:47:10;0.20;99.90
51011;DHT22;37038;50.182;8.624;2024-01-16T10:50:03;0.20;99.90
51011;DHT22;37038;50.182;8.624;2024-01-16T10:52:54;0.40;65.90
51011;DHT22;37038;50.182;8.624;2024-01-16T10:55:50;0.40;1.00
51011;DHT22;37038;50.182;8.624;2024-01-16T10:58:42;0.40;99.90
51011;DHT22;37038;50.182;8.624;2024-01-16T11:01:31;0.60;1.00
51011;DHT22;37038;50.182;8.624;2024-01-16T11:04:21;0.80;1.00
51011;DHT22;37038;50.182;8.624;2024-01-16T11:07:13;0.60;99.90
51011;DHT22;37038;50.182;8.624;2024-01-16T11:10:02;1.00;1.00
51011;DHT22;37038;50.182;8.624;2024-01-16T11:12:54;1.00;1.00
51011;DHT22;37038;50.182;8.624;2024-01-16T11:15:43;1.00;1.00
51011;DHT22;37038;50.182;8.624;2024-01-16T11:18:34;1.80;99.90
51011;DHT22;37038;50.182;8.624;2024-01-16T11:21:24;1.90;99.90
51011;DHT22;37038;50.182;8.624;2024-01-16T11:24:13;1.40;1.00
51011;DHT22;37038;50.182;8.624;2024-01-16T11:27:01;1.90;99.90
51011;DHT22;37038;50.182;8.624;2024-01-16T11:29:50;1.60;99.90
51011;DHT22;37038;50.182;8.624;2024-01-16T11:32:40;1.90;99.90
51011;DHT22;37038;50.182;8.624;2024-01-16T11:35:36;2.00;99.90
51011;DHT22;37038;50.182;8.624;2024-01-16T11:38:26;1.50;1.00
51011;DHT22;37038;50.182;8.624;2024-01-16T11:42:09;1.80;99.90
51011;DHT22;37038;50.182;8.624;2024-01-16T11:44:53;2.10;99.90
51011;DHT22;37038;50.182;8.624;2024-01-16T11:47:44;2.10;99.90
51011;DHT22;37038;50.182;8.624;2024-01-16T11:50:33;1.90;99.90
51011;DHT22;37038;50.182;8.624;2024-01-16T12:00:18;2.00;99.90
51011;DHT22;37038;50.182;8.624;2024-01-16T12:03:11;1.90;99.90
51011;DHT22;37038;50.182;8.624;2024-01-16T12:06:18;1.90;99.90
51011;DHT22;37038;50.182;8.624;2024-01-16T12:09:13;2.60;99.90
51011;DHT22;37038;50.182;8.624;2024-01-16T12:12:09;2.40;99.90
51011;DHT22;37038;50.182;8.624;2024-01-16T12:14:57;3.00;99.90
51011;DHT22;37038;50.182;8.624;2024-01-16T12:18:06;2.80;99.90
51011;DHT22;37038;50.182;8.624;2024-01-16T12:21:10;3.10;99.90
51011;DHT22;37038;50.182;8.624;2024-01-16T12:24:02;4.30;99.90
51011;DHT22;37038;50.182;8.624;2024-01-16T12:26:59;5.80;99.90
51011;DHT22;37038;50.182;8.624;2024-01-16T12:29:48;4.90;99.90
51011;DHT22;37038;50.182;8.624;2024-01-16T12:32:39;4.40;99.90
51011;DHT22;37038;50.182;8.624;2024-01-16T12:35:42;4.60;99.90
51011;DHT22;37038;50.182;8.624;2024-01-16T12:38:54;5.40;99.90
51011;DHT22;37038;50.182;8.624;2024-01-16T12:41:47;5.30;99.90
51011;DHT22;37038;50.182;8.624;2024-01-16T12:44:38;4.50;99.90
51011;DHT22;37038;50.182;8.624;2024-01-16T12:47:33;4.40;99.90
51011;DHT22;37038;50.182;8.624;2024-01-16T12:50:32;4.30;99.90
51011;DHT22;37038;50.182;8.624;2024-01-16T12:53:26;4.50;99.90
51011;DHT22;37038;50.182;8.624;2024-01-16T12:56:32;3.60;99.90
51011;DHT22;37038;50.182;8.624;2024-01-16T12:59:43;3.70;99.90
51011;DHT22;37038;50.182;8.624;2024-01-16T13:02:49;3.40;99.90
51011;DHT22;37038;50.182;8.624;2024-01-16T13:05:39;2.90;99.90
51011;DHT22;37038;50.182;8.624;2024-01-16T13:08:32;2.90;99.90
51011;DHT22;37038;50.182;8.624;2024-01-16T13:11:31;2.40;99.90
51011;DHT22;37038;50.182;8.624;2024-01-16T13:14:29;2.20;99.90
51011;DHT22;37038;50.182;8.624;2024-01-16T13:17:41;2.00;99.90
51011;DHT22;37038;50.182;8.624;2024-01-16T13:21:22;1.90;99.90
51011;DHT22;37038;50.182;8.624;2024-01-16T13:24:32;2.00;99.90
51011;DHT22;37038;50.182;8.624;2024-01-16T13:27:28;2.00;99.90
51011;DHT22;37038;50.182;8.624;2024-01-16T13:30:34;2.10;99.90
51011;DHT22;37038;50.182;8.624;2024-01-16T13:33:34;1.90;99.90
51011;DHT22;37038;50.182;8.624;2024-01-16T13:36:40;1.90;99.90
51011;DHT22;37038;50.182;8.624;2024-01-16T13:39:57;1.70;99.90
51011;DHT22;37038;50.182;8.624;2024-01-16T13:42:54;1.80;99.90
51011;DHT22;37038;50.182;8.624;2024-01-16T13:46:07;2.00;99.90
51011;DHT22;37038;50.182;8.624;2024-01-16T13:49:12;2.10;99.90
51011;DHT22;37038;50.182;8.624;2024-01-16T13:52:04;2.50;99.90
51011;DHT22;37038;50.182;8.624;2024-01-16T13:55:02;3.10;99.90
51011;DHT22;37038;50.182;8.624;2024-01-16T13:57:54;3.70;99.90
51011;DHT22;37038;50.182;8.624;2024-01-16T14:00:55;3.90;99.90
51011;DHT22;37038;50.182;8.624;2024-01-16T14:03:56;4.20;99.90
51011;DHT22;37038;50.182;8.624;2024-01-16T14:06:55;4.70;99.90
51011;DHT22;37038;50.182;8.624;2024-01-16T14:10:03;4.20;99.90
51011;DHT22;37038;50.182;8.624;2024-01-16T14:13:00;4.00;99.90
51011;DHT22;37038;50.182;8.624;2024-01-16T14:15:58;3.50;99.90
51011;DHT22;37038;50.182;8.624;2024-01-16T14:18:53;3.80;99.90
51011;DHT22;37038;50.182;8.624;2024-01-16T14:21:55;4.10;99.90
51011;DHT22;37038;50.182;8.624;2024-01-16T14:24:43;2.90;99.90
51011;DHT22;37038;50.182;8.624;2024-01-16T14:28:00;2.00;99.90
51011;DHT22;37038;50.182;8.624;2024-01-16T14:31:13;1.80;99.90
51011;DHT22;37038;50.182;8.624;2024-01-16T14:34:04;1.80;99.90
51011;DHT22;37038;50.182;8.624;2024-01-16T14:37:06;1.60;99.90
51011;DHT22;37038;50.182;8.624;2024-01-16T14:40:04;1.70;99.90
51011;DHT22;37038;50.182;8.624;2024-01-16T14:43:04;1.60;99.90
51011;DHT22;37038;50.182;8.624;2024-01-16T14:45:55;1.60;99.90
51011;DHT22;37038;50.182;8.624;2024-01-16T14:48:46;2.50;99.90
51011;DHT22;37038;50.182;8.624;2024-01-16T14:51:39;3.90;99.90
51011;DHT22;37038;50.182;8.624;2024-01-16T14:54:29;4.00;99.90
51011;DHT22;37038;50.182;8.624;2024-01-16T14:57:20;4.30;99.90
51011;DHT22;37038;50.182;8.624;2024-01-16T15:00:10;3.80;99.90
51011;DHT22;37038;50.182;8.624;2024-01-16T15:03:22;2.90;99.90
51011;DHT22;37038;50.182;8.624;2024-01-16T15:06:21;2.50;99.90
51011;DHT22;37038;50.182;8.624;2024-01-16T15:09:21;2.50;99.90
51011;DHT22;37038;50.182;8.624;2024-01-16T15:12:10;2.20;99.90
51011;DHT22;37038;50.182;8.624;2024-01-16T15:15:02;2.10;99.90
51011;DHT22;37038;50.182;8.624;2024-01-16T15:17:55;1.80;99.90
51011;DHT22;37038;50.182;8.624;2024-01-16T15:20:49;1.60;99.90
51011;DHT22;37038;50.182;8.624;2024-01-16T15:23:38;1.60;99.90
51011;DHT22;37038;50.182;8.624;2024-01-16T15:26:29;1.40;99.90
51011;DHT22;37038;50.182;8.624;2024-01-16T15:29:19;1.20;99.90
51011;DHT22;37038;50.182;8.624;2024-01-16T15:32:07;1.20;99.90
51011;DHT22;37038;50.182;8.624;2024-01-16T15:35:00;1.10;99.90
51011;DHT22;37038;50.182;8.624;2024-01-16T15:37:53;1.00;99.90
51011;DHT22;37038;50.182;8.624;2024-01-16T15:41:18;1.00;99.90
51011;DHT22;37038;50.182;8.624;2024-01-16T15:44:42;1.00;99.90
51011;DHT22;37038;50.182;8.624;2024-01-16T15:47:44;0.90;99.90
51011;DHT22;37038;50.182;8.624;2024-01-16T15:50:35;0.70;99.90
51011;DHT22;37038;50.182;8.624;2024-01-16T15:53:25;0.80;99.90
51011;DHT22;37038;50.182;8.624;2024-01-16T15:56:16;0.60;99.90
51011;DHT22;37038;50.182;8.624;2024-01-16T15:59:08;0.60;99.90
51011;DHT22;37038;50.182;8.624;2024-01-16T16:02:04;0.50;99.90
51011;DHT22;37038;50.182;8.624;2024-01-16T16:04:52;0.50;99.90
51011;DHT22;37038;50.182;8.624;2024-01-16T16:07:41;0.40;1.00
51011;DHT22;37038;50.182;8.624;2024-01-16T16:10:30;0.40;1.00
51011;DHT22;37038;50.182;8.624;2024-01-16T16:13:23;0.40;1.00
51011;DHT22;37038;50.182;8.624;2024-01-16T16:16:12;0.40;99.90
51011;DHT22;37038;50.182;8.624;2024-01-16T16:19:04;0.40;99.90
51011;DHT22;37038;50.182;8.624;2024-01-16T16:21:56;0.30;1.00
51011;DHT22;37038;50.182;8.624;2024-01-16T16:24:45;0.20;1.00
51011;DHT22;37038;50.182;8.624;2024-01-16T16:27:45;0.30;1.00
51011;DHT22;37038;50.182;8.624;2024-01-16T16:30:38;0.20;1.00
51011;DHT22;37038;50.182;8.624;2024-01-16T16:33:26;0.30;1.00
51011;DHT22;37038;50.182;8.624;2024-01-16T16:36:14;0.10;1.00
51011;DHT22;37038;50.182;8.624;2024-01-16T16:39:04;0.20;1.00
51011;DHT22;37038;50.182;8.624;2024-01-16T16:41:55;0.10;1.00
51011;DHT22;37038;50.182;8.624;2024-01-16T16:44:43;0.10;1.00
51011;DHT22;37038;50.182;8.624;2024-01-16T16:47:34;0.00;1.00
51011;DHT22;37038;50.182;8.624;2024-01-16T16:50:28;0.00;1.00
51011;DHT22;37038;50.182;8.624;2024-01-16T16:53:17;-0.10;1.00
51011;DHT22;37038;50.182;8.624;2024-01-16T16:56:27;-0.10;1.00
51011;DHT22;37038;50.182;8.624;2024-01-16T16:59:18;-0.10;1.00
51011;DHT22;37038;50.182;8.624;2024-01-16T17:02:13;-0.20;1.00
51011;DHT22;37038;50.182;8.624;2024-01-16T17:05:10;-0.20;1.00
51011;DHT22;37038;50.182;8.624;2024-01-16T17:08:21;-0.30;1.00
51011;DHT22;37038;50.182;8.624;2024-01-16T17:11:18;-0.50;39.90
51011;DHT22;37038;50.182;8.624;2024-01-16T17:14:13;-0.60;99.90
51011;DHT22;37038;50.182;8.624;2024-01-16T17:17:04;-0.60;99.90
51011;DHT22;37038;50.182;8.624;2024-01-16T17:20:07;-0.50;99.90
51011;DHT22;37038;50.182;8.624;2024-01-16T17:23:05;-0.40;99.90
51011;DHT22;37038;50.182;8.624;2024-01-16T17:26:20;-0.40;99.90
51011;DHT22;37038;50.182;8.624;2024-01-16T17:29:27;-0.20;99.90
51011;DHT22;37038;50.182;8.624;2024-01-16T17:32:15;0.10;1.00
51011;DHT22;37038;50.182;8.624;2024-01-16T17:35:14;0.20;1.00
51011;DHT22;37038;50.182;8.624;2024-01-16T17:38:10;0.00;1.00
51011;DHT22;37038;50.182;8.624;2024-01-16T17:41:05;-0.20;1.00
51011;DHT22;37038;50.182;8.624;2024-01-16T17:44:02;-0.20;1.00
51011;DHT22;37038;50.182;8.624;2024-01-16T17:46:52;-0.40;1.00
51011;DHT22;37038;50.182;8.624;2024-01-16T17:49:46;-0.40;1.00
51011;DHT22;37038;50.182;8.624;2024-01-16T17:52:38;-0.60;68.20
51011;DHT22;37038;50.182;8.624;2024-01-16T17:55:31;-0.70;99.90
51011;DHT22;37038;50.182;8.624;2024-01-16T17:58:25;-0.90;99.90
51011;DHT22;37038;50.182;8.624;2024-01-16T18:01:22;-0.90;99.90
51011;DHT22;37038;50.182;8.624;2024-01-16T18:04:13;-0.80;99.90
51011;DHT22;37038;50.182;8.624;2024-01-16T18:07:04;-0.90;99.90
51011;DHT22;37038;50.182;8.624;2024-01-16T18:09:56;-1.00;99.90
51011;DHT22;37038;50.182;8.624;2024-01-16T18:12:48;-1.10;1.00
51011;DHT22;37038;50.182;8.624;2024-01-16T18:15:41;-0.90;1.00
51011;DHT22;37038;50.182;8.624;2024-01-16T18:18:32;-0.90;99.90
51011;DHT22;37038;50.182;8.624;2024-01-16T18:21:22;-0.90;99.90
51011;DHT22;37038;50.182;8.624;2024-01-16T18:24:12;-1.00;99.90
51011;DHT22;37038;50.182;8.624;2024-01-16T18:27:04;-1.10;99.90
51011;DHT22;37038;50.182;8.624;2024-01-16T18:29:58;-1.20;99.90
51011;DHT22;37038;50.182;8.624;2024-01-16T18:32:49;-1.20;99.90